This is the latest recevied weather packets stored in our database for station/object OE-11307. If no packets are shown the sender has not sent any weather packets the latest 10 day(s).
| Time | Temp. | Humidity | Pressure | Rain* | Wind** | Luminosity | Snow |
|---|---|---|---|---|---|---|---|
| 1787781313 | 16.67° C | 76% | 853.2 hPa | 0 mm | - | 0 W/m² | - |
| 1787780488 | 16.67° C | 76% | 853.2 hPa | 0 mm | - | 0 W/m² | - |
| 1787780114 | 16.67° C | 76% | 853.2 hPa | 0 mm | - | 0 W/m² | - |
| 1787779513 | 16.11° C | 77% | 853.3 hPa | 0 mm | - | 0 W/m² | - |
| 1787778687 | 16.11° C | 79% | 853.4 hPa | 0 mm | - | 0 W/m² | - |
| 1787778321 | 16.67° C | 78% | 853.3 hPa | 0 mm | - | 0 W/m² | - |
| 1787777714 | 16.11° C | 81% | 853.3 hPa | 0 mm | - | 0 W/m² | - |
| 1787776887 | 15.56° C | 83% | 853.3 hPa | 0 mm | - | 0 W/m² | - |
| 1787776514 | 15.56° C | 84% | 853.3 hPa | 0 mm | - | 0 W/m² | - |
| 1787775914 | 16.11° C | 83% | 853.5 hPa | 0 mm | - | 0 W/m² | - |
| 1787775088 | 16.11° C | 83% | 853.6 hPa | 0 mm | - | 0 W/m² | - |
| 1787774714 | 16.67° C | 82% | 853.6 hPa | 0 mm | - | 0 W/m² | - |
| 1787774114 | 16.67° C | 82% | 853.7 hPa | 0 mm | - | 0 W/m² | - |
| 1787773287 | 16.11° C | 85% | 853.7 hPa | 0 mm | - | 0 W/m² | - |
| 1787772914 | 16.67° C | 81% | 853.8 hPa | 0 mm | - | 0 W/m² | - |
| 1787772314 | 16.11° C | 85% | 853.5 hPa | 0 mm | - | 0 W/m² | - |
| 1787771487 | 16.11° C | 86% | 853.4 hPa | 0 mm | - | 0 W/m² | - |
| 1787771114 | 16.67° C | 85% | 853.2 hPa | 0 mm | - | 0 W/m² | - |
| 1787770514 | 16.67° C | 84% | 853.2 hPa | 0 mm | - | 0 W/m² | - |
| 1787769687 | 16.67° C | 84% | 852.9 hPa | 0 mm | - | 0 W/m² | - |
| 1787769314 | 17.22° C | 83% | 852.8 hPa | 0 mm | - | 0 W/m² | - |
| 1787768714 | 17.78° C | 82% | 852.9 hPa | 0 mm | - | 6 W/m² | - |
| 1787767887 | 17.78° C | 82% | 853.2 hPa | 0 mm | - | 13 W/m² | - |
| 1787767514 | 17.78° C | 81% | 853.4 hPa | 0 mm | - | 19 W/m² | - |
| 1787766914 | 18.33° C | 80% | 853.3 hPa | 0 mm | - | 25 W/m² | - |
* Rain latest hour (hover to see other rain measurements)
** Current wind speed in m/s (hover to see current wind gust speed)